Time;durP1;ratioP1;P1;durP2;ratioP2;P2;SDS_P1;SDS_P2;PMS_P1;PMS_P2;Temp;Humidity;BMP_temperature;BMP_pressure;BME280_temperature;BME280_humidity;BME280_pressure;Samples;Min_cycle;Max_cycle;Signal;HPM_P1;HPM_P2
2021/08/15 00:00:18;;;;;;;15.80;12.00;;;;;;;16.52;79.99;100449.15;92793;1209;98308;-64
2021/08/15 00:02:46;;;;;;;16.40;11.90;;;;;;;16.49;80.00;100446.56;92799;1209;89928;-63
2021/08/15 00:04:58;;;;;;;13.70;11.70;;;;;;;16.45;80.07;100442.61;92809;1209;94492;-64
2021/08/15 00:07:06;;;;;;;16.90;12.30;;;;;;;16.44;80.14;100443.67;92799;1209;79769;-63
2021/08/15 00:09:14;;;;;;;15.40;12.60;;;;;;;16.41;80.10;100441.36;92846;1209;82001;-64
2021/08/15 00:11:25;;;;;;;17.00;12.40;;;;;;;16.38;80.05;100439.58;92848;1209;99878;-67
2021/08/15 00:13:32;;;;;;;16.60;11.60;;;;;;;16.36;80.13;100441.20;92820;1209;87052;-67
2021/08/15 00:15:40;;;;;;;14.70;12.00;;;;;;;16.35;80.22;100443.02;92774;1208;93771;-67
2021/08/15 00:17:51;;;;;;;15.60;11.50;;;;;;;16.34;80.17;100439.98;92808;1209;80191;-67
2021/08/15 00:19:58;;;;;;;14.60;11.80;;;;;;;16.33;80.15;100441.15;92823;1208;81132;-67
2021/08/15 00:22:07;;;;;;;17.80;13.40;;;;;;;16.33;80.18;100446.38;92775;1208;98055;-68
2021/08/15 00:24:15;;;;;;;16.30;12.20;;;;;;;16.30;80.37;100446.54;92826;1209;86852;-67
2021/08/15 00:26:22;;;;;;;15.30;11.30;;;;;;;16.30;80.39;100444.99;92791;1209;94419;-65
2021/08/15 00:28:30;;;;;;;14.80;11.90;;;;;;;16.31;80.37;100444.60;92815;1209;81559;-64
2021/08/15 00:30:38;;;;;;;13.80;11.50;;;;;;;16.33;80.31;100445.59;92812;1209;81894;-67
2021/08/15 00:32:58;;;;;;;14.30;11.70;;;;;;;16.36;80.33;100440.98;92799;1208;97489;-68
2021/08/15 00:35:07;;;;;;;11.90;10.70;;;;;;;16.35;80.35;100443.94;92813;1209;87585;-64
2021/08/15 00:37:17;;;;;;;13.20;10.80;;;;;;;16.33;80.43;100440.05;92836;1208;93062;-64
2021/08/15 00:39:25;;;;;;;12.10;10.80;;;;;;;16.33;80.44;100436.69;92787;1209;80802;-64
2021/08/15 00:41:36;;;;;;;14.90;11.20;;;;;;;16.30;80.43;100434.59;92832;1209;80486;-68
2021/08/15 00:43:47;;;;;;;12.40;11.20;;;;;;;16.29;80.57;100437.07;92800;1209;98588;-68
2021/08/15 00:45:55;;;;;;;13.20;10.60;;;;;;;16.29;80.51;100434.64;92819;1209;88133;-64
2021/08/15 00:48:13;;;;;;;13.90;11.20;;;;;;;16.29;80.47;100431.75;92777;1208;93253;-64
2021/08/15 00:50:21;;;;;;;12.90;11.00;;;;;;;16.27;80.60;100431.10;92806;1208;81225;-64
2021/08/15 00:52:28;;;;;;;14.50;11.90;;;;;;;16.27;80.47;100425.98;92823;1209;82268;-64
2021/08/15 00:54:42;;;;;;;13.20;11.30;;;;;;;16.29;80.59;100429.64;92803;1209;98275;-63
2021/08/15 00:56:54;;;;;;;13.40;12.00;;;;;;;16.32;80.50;100428.65;92824;1209;87595;-67
2021/08/15 00:59:07;;;;;;;12.40;10.80;;;;;;;16.31;80.48;100427.70;92777;1209;94502;-68
2021/08/15 01:01:15;;;;;;;13.00;10.90;;;;;;;16.30;80.55;100427.67;92833;1207;81227;-68
2021/08/15 01:03:22;;;;;;;11.70;10.30;;;;;;;16.27;80.53;100428.91;92809;1208;81341;-67
2021/08/15 01:05:30;;;;;;;14.70;10.80;;;;;;;16.26;80.64;100424.95;92832;1209;98236;-67
2021/08/15 01:07:38;;;;;;;12.60;11.40;;;;;;;16.29;80.59;100423.02;92820;1209;87461;-67
2021/08/15 01:09:46;;;;;;;12.00;10.20;;;;;;;16.30;80.54;100422.05;92825;1209;92751;-64
2021/08/15 01:11:54;;;;;;;15.60;10.90;;;;;;;16.32;80.49;100421.98;92794;1209;81549;-64
2021/08/15 01:14:04;;;;;;;11.80;10.40;;;;;;;16.30;80.50;100421.38;92814;1209;79435;-64
2021/08/15 01:16:11;;;;;;;14.60;11.60;;;;;;;16.23;80.42;100423.52;92856;1209;98542;-67
2021/08/15 01:18:28;;;;;;;14.80;11.30;;;;;;;16.21;80.47;100422.18;92835;1209;87373;-67
2021/08/15 01:20:35;;;;;;;12.30;10.40;;;;;;;16.16;80.49;100421.77;92775;1209;94107;-64
2021/08/15 01:22:45;;;;;;;14.30;10.20;;;;;;;16.13;80.46;100421.23;92808;1208;80149;-64
2021/08/15 01:24:53;;;;;;;10.70;9.40;;;;;;;16.12;80.46;100420.94;92825;1209;81913;-67
2021/08/15 01:27:03;;;;;;;11.00;9.70;;;;;;;16.11;80.50;100420.27;92831;1209;97576;-67
2021/08/15 01:29:14;;;;;;;13.10;9.70;;;;;;;16.11;80.60;100421.11;92832;1209;86734;-67
2021/08/15 01:31:23;;;;;;;13.80;9.70;;;;;;;16.10;80.53;100423.85;92820;1209;94360;-64
2021/08/15 01:33:33;;;;;;;13.20;9.80;;;;;;;16.09;80.58;100418.16;92856;1209;81057;-64
2021/08/15 01:35:41;;;;;;;12.90;9.10;;;;;;;16.07;80.80;100418.89;92832;1208;81711;-67
2021/08/15 01:37:55;;;;;;;11.20;9.00;;;;;;;16.09;80.63;100418.64;92782;1208;98441;-68
2021/08/15 01:40:03;;;;;;;;;;;;;;;16.06;80.64;100413.81;92844;1208;86226;-68
2021/08/15 01:42:11;;;;;;;13.10;8.80;;;;;;;16.03;80.52;100414.44;92822;1209;94437;-68
2021/08/15 01:44:19;;;;;;;12.10;9.80;;;;;;;15.98;80.66;100413.61;92824;1209;78820;-68
2021/08/15 01:46:29;;;;;;;11.10;8.80;;;;;;;15.91;80.74;100412.70;92833;1209;81934;-64
2021/08/15 01:48:36;;;;;;;10.40;9.20;;;;;;;15.91;80.65;100416.61;92796;1209;99064;-64
2021/08/15 01:50:44;;;;;;;10.10;8.80;;;;;;;15.85;80.60;100412.67;92830;1209;87515;-64
2021/08/15 01:53:07;;;;;;;11.90;9.30;;;;;;;15.81;80.59;100413.05;92805;1209;94653;-65
2021/08/15 01:55:18;;;;;;;14.70;9.90;;;;;;;15.77;80.62;100407.50;92785;1208;79089;-65
2021/08/15 01:57:26;;;;;;;10.90;8.80;;;;;;;15.75;80.72;100407.79;92841;1209;82396;-65
2021/08/15 01:59:34;;;;;;;11.50;9.40;;;;;;;15.74;80.72;100404.61;92821;1209;98365;-64
2021/08/15 02:01:44;;;;;;;12.50;9.10;;;;;;;15.74;80.71;100401.89;92803;1209;87124;-64
2021/08/15 02:03:53;;;;;;;10.40;9.20;;;;;;;15.70;80.68;100398.02;92820;1209;94336;-64
2021/08/15 02:06:01;;;;;;;10.40;8.30;;;;;;;15.72;80.87;100398.71;92827;1207;77859;-68
2021/08/15 02:08:09;;;;;;;10.40;8.50;;;;;;;15.73;80.78;100396.73;92830;1209;82864;-68
2021/08/15 02:10:16;;;;;;;10.40;9.20;;;;;;;15.73;80.77;100393.98;92821;1209;98053;-64
2021/08/15 02:12:27;;;;;;;10.60;9.00;;;;;;;15.75;80.78;100392.70;92814;1209;86110;-64
2021/08/15 02:14:34;;;;;;;14.00;9.20;;;;;;;15.76;80.80;100387.63;92801;1209;94297;-64
2021/08/15 02:16:43;;;;;;;10.60;8.20;;;;;;;15.76;80.85;100388.38;92792;1208;80879;-64
2021/08/15 02:18:50;;;;;;;11.60;9.30;;;;;;;15.78;80.78;100389.30;92823;1209;80257;-64
2021/08/15 02:20:58;;;;;;;15.30;8.50;;;;;;;15.81;80.84;100387.64;92833;1209;98154;-67
2021/08/15 02:23:06;;;;;;;11.10;8.40;;;;;;;15.83;80.82;100391.40;92825;1209;87693;-68
2021/08/15 02:25:17;;;;;;;10.10;8.90;;;;;;;15.79;80.81;100390.81;92771;1209;94499;-67
2021/08/15 02:27:25;;;;;;;12.70;8.70;;;;;;;15.82;80.84;100389.90;92776;1209;80013;-67
2021/08/15 02:29:33;;;;;;;13.90;8.60;;;;;;;15.82;80.87;100387.65;92815;1209;82632;-68
2021/08/15 02:31:40;;;;;;;12.20;8.90;;;;;;;15.85;80.90;100387.98;92826;1209;98470;-67
2021/08/15 02:33:48;;;;;;;11.70;10.20;;;;;;;15.87;80.93;100386.42;92827;1209;87723;-68
2021/08/15 02:35:56;;;;;;;11.60;9.60;;;;;;;15.88;80.89;100385.19;92820;1209;94640;-65
2021/08/15 02:38:05;;;;;;;10.80;8.60;;;;;;;15.88;80.93;100384.70;92813;1209;79367;-64
2021/08/15 02:40:15;;;;;;;11.30;9.40;;;;;;;15.90;80.91;100386.94;92855;1209;81617;-67
2021/08/15 02:42:22;;;;;;;11.00;8.60;;;;;;;15.93;80.96;100389.16;92786;1208;98792;-68
2021/08/15 02:44:30;;;;;;;11.90;9.20;;;;;;;15.96;80.99;100389.14;92798;1209;88155;-67
2021/08/15 02:46:37;;;;;;;11.80;8.80;;;;;;;16.00;80.98;100388.55;92787;1208;92644;-64
2021/08/15 02:48:45;;;;;;;13.00;9.90;;;;;;;16.03;81.01;100388.53;92808;1209;79577;-65
2021/08/15 02:50:52;;;;;;;11.60;9.20;;;;;;;16.05;80.95;100385.92;92841;1208;80652;-65
2021/08/15 02:53:00;;;;;;;12.10;9.20;;;;;;;16.10;80.81;100388.64;92819;1209;97848;-65
2021/08/15 02:55:11;;;;;;;11.30;9.40;;;;;;;16.10;80.82;100385.70;92801;1215;86750;-65
2021/08/15 02:57:18;;;;;;;12.30;9.20;;;;;;;16.11;80.96;100382.08;92830;1208;92535;-65
2021/08/15 02:59:29;;;;;;;11.50;9.30;;;;;;;16.12;80.84;100380.69;92814;1209;78772;-65
2021/08/15 03:01:36;;;;;;;12.90;8.90;;;;;;;16.14;80.95;100374.74;92824;1209;80880;-65
2021/08/15 03:03:44;;;;;;;14.40;9.40;;;;;;;16.14;80.78;100373.88;92819;1209;99085;-63
2021/08/15 03:05:52;;;;;;;9.70;8.30;;;;;;;16.17;80.75;100374.30;92821;1209;86726;-63
2021/08/15 03:08:00;;;;;;;10.10;8.30;;;;;;;16.16;80.75;100377.44;92794;1209;94443;-63
2021/08/15 03:10:10;;;;;;;10.60;8.00;;;;;;;16.16;80.70;100375.98;92806;1208;78002;-67
2021/08/15 03:12:21;;;;;;;13.00;8.70;;;;;;;16.15;80.73;100375.12;92824;1209;81958;-66
2021/08/15 03:14:34;;;;;;;10.40;8.40;;;;;;;16.12;80.73;100377.38;92811;1209;98212;-67
2021/08/15 03:16:42;;;;;;;10.40;9.40;;;;;;;16.09;80.83;100374.34;92801;1209;86686;-64
2021/08/15 03:18:49;;;;;;;11.90;9.10;;;;;;;16.13;80.78;100368.67;92809;1209;94139;-64
2021/08/15 03:20:57;;;;;;;11.20;8.40;;;;;;;16.17;80.76;100375.52;92822;1209;79960;-68
2021/08/15 03:23:05;;;;;;;10.40;8.30;;;;;;;16.20;80.80;100375.62;92874;1209;80438;-68
2021/08/15 03:25:13;;;;;;;13.10;8.20;;;;;;;16.23;80.77;100375.02;92806;1208;98219;-67
2021/08/15 03:27:21;;;;;;;15.90;8.80;;;;;;;16.25;80.73;100373.75;92834;1209;88524;-68
2021/08/15 03:29:29;;;;;;;9.50;8.50;;;;;;;16.30;80.72;100371.05;92864;1208;93236;-67
2021/08/15 03:31:37;;;;;;;12.30;8.80;;;;;;;16.34;80.66;100370.15;92776;1209;79482;-64
2021/08/15 03:33:44;;;;;;;10.40;9.40;;;;;;;16.38;80.62;100365.36;92851;1209;81625;-64
2021/08/15 03:35:52;;;;;;;13.60;9.40;;;;;;;16.44;80.61;100368.36;92870;1209;99161;-68
2021/08/15 03:37:59;;;;;;;12.60;9.30;;;;;;;16.51;80.52;100369.09;92824;1208;87940;-68
2021/08/15 03:40:09;;;;;;;10.50;8.90;;;;;;;16.56;80.49;100365.20;92876;1209;94047;-65
2021/08/15 03:42:17;;;;;;;11.80;8.50;;;;;;;16.58;80.33;100365.91;92813;1209;78573;-65
2021/08/15 03:44:24;;;;;;;10.80;8.40;;;;;;;16.63;80.29;100369.92;92855;1209;81662;-65
2021/08/15 03:46:32;;;;;;;11.90;8.20;;;;;;;16.65;80.24;100369.87;92817;1209;98666;-68
2021/08/15 03:48:39;;;;;;;10.70;8.50;;;;;;;16.66;80.24;100371.27;92812;1209;88013;-68
2021/08/15 03:50:47;;;;;;;10.30;9.00;;;;;;;16.73;80.20;100370.42;92822;1209;93780;-67
2021/08/15 03:52:54;;;;;;;10.20;8.60;;;;;;;16.80;80.09;100370.29;92797;1209;79700;-67
2021/08/15 03:55:07;;;;;;;13.00;8.80;;;;;;;16.83;80.02;100367.44;92814;1209;80840;-65
2021/08/15 03:57:14;;;;;;;10.20;8.30;;;;;;;16.89;79.99;100364.98;92818;1208;98918;-64
2021/08/15 03:59:22;;;;;;;8.60;7.70;;;;;;;16.96;79.96;100362.55;92840;1209;87590;-64
2021/08/15 04:01:30;;;;;;;9.40;8.20;;;;;;;17.00;79.91;100357.82;92782;1209;94624;-68
2021/08/15 04:03:39;;;;;;;10.20;8.70;;;;;;;17.07;79.80;100356.38;92807;1209;80615;-67
2021/08/15 04:05:46;;;;;;;10.10;8.10;;;;;;;17.21;79.82;100356.02;92826;1209;81582;-64
2021/08/15 04:07:54;;;;;;;10.80;8.80;;;;;;;17.56;79.72;100348.95;92805;1209;97289;-64
2021/08/15 04:10:03;;;;;;;9.80;7.90;;;;;;;17.86;79.41;100348.72;92823;1209;88166;-64
2021/08/15 04:12:11;;;;;;;10.60;8.70;;;;;;;18.01;79.01;100344.19;92789;1209;94788;-65
2021/08/15 04:14:19;;;;;;;10.60;8.80;;;;;;;18.04;78.81;100337.66;92847;1215;79512;-65
2021/08/15 04:16:27;;;;;;;9.70;8.00;;;;;;;18.10;78.63;100338.92;92841;1209;80208;-65
2021/08/15 04:18:34;;;;;;;12.00;8.80;;;;;;;18.11;78.44;100338.84;92811;1209;97616;-65
2021/08/15 04:20:42;;;;;;;10.00;8.20;;;;;;;18.18;78.33;100338.73;92864;1209;87712;-67
2021/08/15 04:22:50;;;;;;;9.00;7.70;;;;;;;18.24;78.27;100334.53;92811;1209;93899;-68
2021/08/15 04:24:58;;;;;;;10.60;8.20;;;;;;;18.29;78.28;100331.52;92861;1209;79625;-67
2021/08/15 04:27:07;;;;;;;10.30;8.30;;;;;;;18.37;78.36;100330.36;92820;1208;80711;-68
2021/08/15 04:29:17;;;;;;;8.50;7.50;;;;;;;18.44;78.36;100331.34;92783;1209;99104;-68
2021/08/15 04:31:25;;;;;;;11.00;7.60;;;;;;;18.52;78.26;100329.40;92827;1209;87850;-65
2021/08/15 04:33:33;;;;;;;8.60;7.60;;;;;;;18.62;78.02;100326.48;92796;1209;94936;-65
2021/08/15 04:35:40;;;;;;;8.70;7.60;;;;;;;18.74;77.99;100319.40;92829;1208;78081;-65
2021/08/15 04:37:48;;;;;;;10.20;7.80;;;;;;;18.91;77.84;100319.77;92804;1202;81578;-65
2021/08/15 04:39:56;;;;;;;9.50;8.20;;;;;;;19.10;77.66;100320.29;92838;1209;99653;-65
2021/08/15 04:42:05;;;;;;;10.00;7.90;;;;;;;19.52;77.76;100326.60;92809;1209;87986;-65
2021/08/15 04:44:12;;;;;;;8.20;7.30;;;;;;;20.47;77.10;100322.73;92825;1209;95098;-65
2021/08/15 04:46:23;;;;;;;9.90;7.70;;;;;;;21.45;75.94;100322.57;92826;1209;78473;-65
2021/08/15 04:48:30;;;;;;;11.80;7.00;;;;;;;22.32;74.73;100319.92;92816;1209;81093;-66
2021/08/15 04:50:38;;;;;;;10.70;8.10;;;;;;;22.88;73.38;100321.00;92786;1209;98270;-68
2021/08/15 04:52:45;;;;;;;7.90;7.10;;;;;;;23.27;72.54;100323.20;92794;1209;88010;-68
2021/08/15 04:54:53;;;;;;;8.20;6.70;;;;;;;23.18;71.40;100326.00;92798;1209;94619;-68
2021/08/15 04:57:01;;;;;;;8.30;6.80;;;;;;;22.94;71.17;100326.91;92788;1209;79582;-68
2021/08/15 04:59:09;;;;;;;8.20;6.80;;;;;;;22.97;70.11;100329.11;92818;1209;81899;-69
2021/08/15 05:01:16;;;;;;;8.60;7.20;;;;;;;22.62;69.69;100322.83;92841;1209;99259;-68
2021/08/15 05:03:24;;;;;;;11.50;7.30;;;;;;;22.30;69.73;100323.66;92794;1207;87339;-68
2021/08/15 05:05:31;;;;;;;7.50;6.70;;;;;;;22.06;69.54;100326.63;92788;1209;93603;-68
2021/08/15 05:07:39;;;;;;;8.00;7.20;;;;;;;21.87;69.54;100327.92;92820;1209;79824;-68
2021/08/15 05:09:49;;;;;;;9.50;7.50;;;;;;;21.62;69.44;100323.54;92835;1200;81716;-64
2021/08/15 05:11:57;;;;;;;10.40;7.20;;;;;;;21.46;69.57;100325.77;92827;1209;99423;-65
2021/08/15 05:14:06;;;;;;;8.60;7.70;;;;;;;21.47;69.97;100327.17;92805;1208;87637;-65
2021/08/15 05:16:13;;;;;;;9.20;6.80;;;;;;;21.92;69.79;100328.50;92812;1209;94130;-69
2021/08/15 05:18:21;;;;;;;9.90;7.30;;;;;;;22.81;69.89;100322.70;92765;1209;79790;-68
2021/08/15 05:20:29;;;;;;;7.20;6.30;;;;;;;23.35;68.56;100323.11;92801;1208;81658;-68
2021/08/15 05:22:37;;;;;;;7.40;6.70;;;;;;;23.39;67.85;100325.67;92787;1209;99994;-68
2021/08/15 05:24:44;;;;;;;9.70;7.50;;;;;;;23.17;67.68;100323.65;92800;1208;86680;-66
2021/08/15 05:26:52;;;;;;;8.30;7.30;;;;;;;22.85;67.36;100320.88;92802;1209;93964;-65
2021/08/15 05:29:02;;;;;;;10.30;7.30;;;;;;;22.52;67.61;100316.84;92794;1209;79422;-65
2021/08/15 05:31:10;;;;;;;8.30;7.30;;;;;;;22.32;67.84;100319.45;92825;1208;80827;-65
2021/08/15 05:33:17;;;;;;;9.00;6.90;;;;;;;22.47;68.53;100313.39;92803;1209;99558;-65
2021/08/15 05:35:25;;;;;;;8.80;7.30;;;;;;;22.96;67.65;100309.05;92809;1209;88825;-68
2021/08/15 05:37:33;;;;;;;9.10;7.40;;;;;;;22.73;67.31;100307.56;92806;1209;93579;-68
2021/08/15 05:39:41;;;;;;;8.60;7.50;;;;;;;22.45;67.26;100304.47;92785;1209;78521;-67
2021/08/15 05:41:48;;;;;;;10.20;7.70;;;;;;;22.14;67.22;100310.60;92845;1215;81346;-68
2021/08/15 05:43:56;;;;;;;9.60;6.90;;;;;;;21.93;67.74;100310.42;92807;1207;98955;-68
2021/08/15 05:46:03;;;;;;;8.20;7.40;;;;;;;22.78;68.01;100308.27;92821;1209;88401;-68
2021/08/15 05:48:11;;;;;;;9.20;6.90;;;;;;;23.83;67.29;100311.56;92806;1209;94625;-68
2021/08/15 05:50:19;;;;;;;9.10;6.70;;;;;;;24.92;66.20;100313.23;92819;1210;78873;-65
2021/08/15 05:52:29;;;;;;;9.70;7.60;;;;;;;25.98;64.55;100314.29;92855;1209;81788;-65
2021/08/15 05:54:40;;;;;;;8.10;7.30;;;;;;;26.82;62.93;100308.25;92803;1209;99286;-65
2021/08/15 05:56:47;;;;;;;7.60;6.90;;;;;;;27.49;61.68;100308.25;92808;1209;86240;-65
2021/08/15 05:58:55;;;;;;;9.30;7.50;;;;;;;28.22;60.91;100306.87;92809;1209;94308;-65
2021/08/15 06:01:05;;;;;;;7.70;6.90;;;;;;;28.46;59.29;100306.77;92828;1209;79723;-65
2021/08/15 06:03:13;;;;;;;8.00;7.20;;;;;;;28.46;58.59;100305.34;92815;1209;80962;-65
2021/08/15 06:05:21;;;;;;;9.10;7.30;;;;;;;27.99;58.23;100304.91;92824;1209;99556;-68
2021/08/15 06:07:28;;;;;;;7.60;6.90;;;;;;;27.56;58.72;100309.18;92828;1209;88120;-69
2021/08/15 06:09:39;;;;;;;7.70;7.00;;;;;;;27.08;58.97;100308.27;92803;1209;94627;-68
2021/08/15 06:11:47;;;;;;;9.30;8.10;;;;;;;26.74;59.20;100302.92;92801;1209;79825;-68
2021/08/15 06:13:57;;;;;;;10.30;7.50;;;;;;;26.68;59.31;100301.35;92806;1209;81377;-68
2021/08/15 06:16:05;;;;;;;7.70;6.90;;;;;;;26.42;59.22;100304.23;92817;1209;100323;-65
2021/08/15 06:18:13;;;;;;;8.50;7.80;;;;;;;26.24;59.82;100309.38;92817;1208;87745;-65
2021/08/15 06:20:21;;;;;;;8.20;7.40;;;;;;;26.09;60.06;100312.80;92794;1208;93852;-65
2021/08/15 06:22:29;;;;;;;8.60;7.70;;;;;;;25.96;60.43;100319.23;92792;1209;78376;-65
2021/08/15 06:24:38;;;;;;;10.70;7.60;;;;;;;25.79;60.69;100318.86;92821;1209;81832;-65
2021/08/15 06:26:46;;;;;;;10.50;8.10;;;;;;;25.77;61.05;100318.70;92786;1208;100140;-65
2021/08/15 06:28:53;;;;;;;8.70;7.90;;;;;;;25.77;61.37;100318.27;92824;1209;86993;-65
2021/08/15 06:31:01;;;;;;;9.50;8.50;;;;;;;25.80;61.39;100321.33;92783;1209;94079;-66
2021/08/15 06:33:09;;;;;;;9.90;8.20;;;;;;;25.97;61.38;100322.29;92795;1209;79652;-65
2021/08/15 06:35:19;;;;;;;10.40;8.30;;;;;;;26.07;61.37;100322.11;92816;1209;82404;-65
2021/08/15 06:37:27;;;;;;;8.70;7.90;;;;;;;26.16;61.27;100328.16;92812;1208;99389;-65
2021/08/15 06:39:35;;;;;;;9.80;8.40;;;;;;;26.50;60.88;100320.52;92807;1208;86357;-65
2021/08/15 06:41:43;;;;;;;11.10;7.80;;;;;;;27.18;60.93;100322.05;92810;1209;92858;-65
2021/08/15 06:43:51;;;;;;;8.50;7.60;;;;;;;28.54;59.87;100319.80;92965;1197;79195;-69
2021/08/15 06:45:59;;;;;;;8.80;8.00;;;;;;;30.10;58.64;100326.63;92846;1209;81123;-69
2021/08/15 06:48:07;;;;;;;9.80;7.70;;;;;;;30.89;56.59;100320.73;92851;1209;98273;-66
2021/08/15 06:50:15;;;;;;;12.00;8.90;;;;;;;30.78;55.41;100322.67;92860;1209;88766;-66
2021/08/15 06:52:23;;;;;;;12.80;7.90;;;;;;;30.20;55.20;100331.66;92816;1208;94308;-66
2021/08/15 06:54:30;;;;;;;9.10;8.20;;;;;;;29.53;54.98;100328.78;92799;1207;79474;-64
2021/08/15 06:56:38;;;;;;;10.60;8.40;;;;;;;28.95;55.53;100326.09;92826;1209;83338;-64
2021/08/15 06:58:46;;;;;;;8.50;7.60;;;;;;;28.56;56.21;100329.37;92844;1209;98935;-68
2021/08/15 07:00:53;;;;;;;10.40;9.30;;;;;;;28.22;56.47;100332.12;92815;1209;88802;-65
2021/08/15 07:03:01;;;;;;;11.00;9.00;;;;;;;28.00;56.72;100328.39;92832;1209;94764;-71
2021/08/15 07:05:11;;;;;;;9.40;8.40;;;;;;;28.00;56.67;100329.35;92806;1208;78725;-71
2021/08/15 07:07:22;;;;;;;9.50;8.50;;;;;;;28.06;56.81;100326.81;92855;1198;80864;-71
2021/08/15 07:09:29;;;;;;;10.60;8.60;;;;;;;28.29;57.22;100324.06;92824;1209;99016;-71
2021/08/15 07:11:40;;;;;;;10.00;8.10;;;;;;;28.89;56.96;100325.13;92809;1209;88003;-71
2021/08/15 07:13:48;;;;;;;9.30;8.40;;;;;;;29.57;56.77;100327.70;92838;1206;92638;-71
2021/08/15 07:15:56;;;;;;;9.60;8.50;;;;;;;30.31;55.77;100328.35;92810;1210;78768;-71
2021/08/15 07:18:05;;;;;;;8.90;8.00;;;;;;;30.71;55.05;100327.48;92830;1209;80776;-67
2021/08/15 07:20:17;;;;;;;8.60;7.80;;;;;;;30.85;54.74;100324.48;92831;1210;98212;-71
2021/08/15 07:22:24;;;;;;;9.60;8.60;;;;;;;30.66;54.01;100324.51;92858;1206;87206;-73
2021/08/15 07:24:32;;;;;;;10.00;9.10;;;;;;;30.19;53.69;100324.88;92808;1209;94733;-72
2021/08/15 07:26:43;;;;;;;10.10;8.90;;;;;;;29.72;53.69;100326.76;92805;1209;79473;-70
2021/08/15 07:28:54;;;;;;;9.60;8.60;;;;;;;29.39;54.17;100322.20;92861;1207;83172;-72
2021/08/15 07:31:01;;;;;;;9.60;8.60;;;;;;;29.18;54.34;100320.81;92839;1209;98610;-73
2021/08/15 07:33:10;;;;;;;8.60;7.60;;;;;;;29.09;54.57;100325.14;92902;1209;86262;-70
2021/08/15 07:35:18;;;;;;;10.00;8.60;;;;;;;28.86;54.74;100324.63;92826;1206;92644;-71
2021/08/15 07:37:28;;;;;;;9.30;8.50;;;;;;;28.88;54.88;100327.54;92826;1209;78512;-70
2021/08/15 07:39:35;;;;;;;9.40;8.50;;;;;;;28.73;55.20;100330.69;92885;1209;81433;-71
2021/08/15 07:41:46;;;;;;;9.50;8.20;;;;;;;28.92;55.90;100333.51;92866;1206;98643;-70
2021/08/15 07:43:56;;;;;;;8.40;7.60;;;;;;;30.01;55.56;100330.27;92814;1209;87472;-71
2021/08/15 07:46:08;;;;;;;9.00;8.10;;;;;;;31.83;54.36;100329.11;92835;1209;93399;-72
2021/08/15 07:48:16;;;;;;;8.50;7.60;;;;;;;33.47;51.97;100332.17;92836;1209;77980;-73
2021/08/15 07:50:35;;;;;;;8.30;7.50;;;;;;;33.77;50.06;100335.88;92873;1209;81359;-72
2021/08/15 07:52:46;;;;;;;8.10;7.30;;;;;;;33.46;49.64;100335.85;92837;1209;98500;-72
2021/08/15 07:54:54;;;;;;;8.90;7.70;;;;;;;34.25;48.88;100335.44;92889;1209;86987;-77
2021/08/15 07:57:05;;;;;;;8.20;7.50;;;;;;;35.60;47.62;100331.02;92861;1200;93113;-76
2021/08/15 07:59:16;;;;;;;8.50;7.30;;;;;;;36.69;45.99;100330.85;92906;1209;77831;-70
2021/08/15 08:01:23;;;;;;;9.30;7.10;;;;;;;36.59;44.19;100328.83;92815;1206;81990;-70
2021/08/15 08:03:34;;;;;;;7.50;6.70;;;;;;;35.58;43.26;100330.80;92802;1209;99777;-69
2021/08/15 08:05:41;;;;;;;7.40;6.70;;;;;;;34.31;43.41;100332.38;92809;1209;86827;-68
2021/08/15 08:07:49;;;;;;;7.10;6.40;;;;;;;33.52;43.42;100328.61;92820;1209;94630;-70
2021/08/15 08:09:57;;;;;;;8.10;7.00;;;;;;;33.58;44.18;100330.22;92834;1209;79782;-75
2021/08/15 08:12:06;;;;;;;7.10;6.40;;;;;;;33.86;43.62;100329.59;92855;1208;82453;-72
2021/08/15 08:14:13;;;;;;;8.10;7.20;;;;;;;33.68;43.72;100323.95;92878;1209;98968;-76
2021/08/15 08:16:21;;;;;;;8.10;7.30;;;;;;;34.41;43.70;100329.98;92859;1209;87736;-74
2021/08/15 08:18:28;;;;;;;6.90;6.30;;;;;;;34.99;43.02;100324.85;92860;1209;94085;-72
2021/08/15 08:20:37;;;;;;;7.10;6.40;;;;;;;35.79;42.38;100319.36;92827;1209;80218;-72
2021/08/15 08:22:45;;;;;;;7.00;6.30;;;;;;;36.28;41.50;100316.06;92820;1209;82103;-72
2021/08/15 08:24:52;;;;;;;7.80;6.40;;;;;;;36.86;39.98;100316.71;92814;1209;99729;-72
2021/08/15 08:27:03;;;;;;;6.90;6.20;;;;;;;37.11;39.28;100313.67;92818;1209;87895;-73
2021/08/15 08:29:10;;;;;;;6.70;6.10;;;;;;;37.57;38.35;100313.95;92864;1209;94441;-72
2021/08/15 08:31:18;;;;;;;7.10;6.40;;;;;;;37.87;38.14;100316.48;92811;1209;78307;-72
2021/08/15 08:33:27;;;;;;;6.90;6.30;;;;;;;38.19;37.70;100315.30;92866;1209;81807;-72
2021/08/15 08:35:35;;;;;;;7.70;6.80;;;;;;;38.59;37.37;100316.73;92826;1209;99271;-73
2021/08/15 08:37:44;;;;;;;7.10;6.50;;;;;;;38.69;37.28;100317.05;92841;1209;88131;-66
2021/08/15 08:39:56;;;;;;;7.80;7.10;;;;;;;39.11;35.96;100315.41;92787;1207;93949;-65
2021/08/15 08:42:07;;;;;;;7.90;7.10;;;;;;;39.20;35.05;100316.86;92828;1209;79898;-65
2021/08/15 08:44:19;;;;;;;7.20;6.40;;;;;;;39.04;34.35;100311.68;92847;1209;80820;-65
2021/08/15 08:46:29;;;;;;;7.00;6.40;;;;;;;38.06;34.54;100308.30;92850;1209;99304;-65
2021/08/15 08:48:37;;;;;;;6.80;6.10;;;;;;;38.26;35.30;100306.55;92851;1209;88011;-72
2021/08/15 08:50:44;;;;;;;7.00;5.90;;;;;;;38.54;34.98;100311.88;92801;1209;94692;-71
2021/08/15 08:52:55;;;;;;;7.80;6.30;;;;;;;38.37;34.38;100307.06;92836;1206;78270;-71
2021/08/15 08:55:05;;;;;;;6.80;6.20;;;;;;;37.89;34.71;100301.27;92850;1209;82235;-67
2021/08/15 08:57:13;;;;;;;6.50;5.90;;;;;;;37.61;34.83;100300.80;92869;1209;99743;-68
2021/08/15 08:59:21;;;;;;;6.30;5.80;;;;;;;37.76;35.10;100300.30;92922;1209;87638;-67
2021/08/15 09:01:29;;;;;;;6.30;5.70;;;;;;;37.53;34.78;100298.38;92879;1208;93664;-68
2021/08/15 09:03:36;;;;;;;6.30;5.80;;;;;;;37.40;35.05;100298.90;92850;1209;79172;-67
2021/08/15 09:05:55;;;;;;;5.70;5.20;;;;;;;37.41;35.21;100294.75;92916;1209;82298;-67
2021/08/15 09:08:04;;;;;;;5.70;5.10;;;;;;;37.54;34.68;100293.90;92823;1209;99506;-70
2021/08/15 09:10:16;;;;;;;6.00;5.40;;;;;;;37.28;34.63;100296.80;92864;1206;86454;-71
2021/08/15 09:12:35;;;;;;;6.20;5.20;;;;;;;36.72;35.33;100295.67;92868;1209;93433;-70
2021/08/15 09:14:44;;;;;;;5.80;5.00;;;;;;;36.80;35.30;100292.91;92894;1209;79824;-71
2021/08/15 09:17:00;;;;;;;5.90;5.20;;;;;;;36.88;34.80;100292.14;92876;1209;83056;-70
2021/08/15 09:21:42;;;;;;;7.10;5.60;;;;;;;36.05;34.85;100291.18;91399;1228;599869;-68
2021/08/15 09:24:01;;;;;;;7.50;6.80;;;;;;;35.93;35.35;100291.15;92717;1212;79870;-70
2021/08/15 09:26:21;;;;;;;6.80;6.00;;;;;;;35.85;34.96;100291.67;92711;1212;80277;-70
2021/08/15 09:28:38;;;;;;;7.20;6.00;;;;;;;35.45;35.08;100290.38;92740;1212;96192;-70
2021/08/15 09:30:45;;;;;;;6.80;5.50;;;;;;;35.08;35.94;100294.88;92749;1212;88712;-70
2021/08/15 09:33:05;;;;;;;7.00;5.20;;;;;;;34.72;36.01;100293.34;92695;1212;93832;-69
2021/08/15 09:35:19;;;;;;;5.90;5.30;;;;;;;34.35;36.02;100291.49;92732;1212;78319;-69
2021/08/15 09:37:31;;;;;;;6.10;5.20;;;;;;;34.01;36.14;100290.53;92750;1212;82159;-69
2021/08/15 09:39:39;;;;;;;6.50;5.10;;;;;;;33.83;36.52;100291.98;92738;1212;95922;-68
2021/08/15 09:41:53;;;;;;;5.20;4.70;;;;;;;33.51;36.99;100289.77;92727;1212;88332;-69
2021/08/15 09:44:23;;;;;;;6.20;4.70;;;;;;;33.18;37.00;100287.95;92729;1206;94119;-69
2021/08/15 09:46:32;;;;;;;5.60;5.00;;;;;;;32.84;37.46;100292.48;92701;1212;78538;-62
2021/08/15 09:48:43;;;;;;;5.20;4.80;;;;;;;32.61;37.66;100291.70;92771;1212;82384;-65
2021/08/15 09:53:28;;;;;;;5.90;5.10;;;;;;;32.26;38.38;100283.30;91724;1225;599806;-62
2021/08/15 09:55:48;;;;;;;7.50;5.10;;;;;;;32.28;38.96;100285.19;92697;1212;77968;-62
2021/08/15 09:58:19;;;;;;;5.90;5.20;;;;;;;32.36;39.29;100282.74;92851;1209;81114;-62
2021/08/15 10:00:35;;;;;;;4.90;4.30;;;;;;;32.56;39.30;100282.48;92817;1209;97802;-62